Time;durP1;ratioP1;P1;durP2;ratioP2;P2;SDS_P1;SDS_P2;PMS_P1;PMS_P2;Temp;Humidity;BMP_temperature;BMP_pressure;BME280_temperature;BME280_humidity;BME280_pressure;Samples;Min_cycle;Max_cycle;Signal;HPM_P1;HPM_P2
2023/07/18 00:02:01;;;;;;;18.67;5.55;;;12.10;99.90;;;;;;5095597;28;20084;-24
2023/07/18 00:04:29;;;;;;;16.83;5.85;;;12.10;99.90;;;;;;5095951;28;20044;-25
2023/07/18 00:06:55;;;;;;;16.40;5.22;;;12.10;99.90;;;;;;5095139;28;20490;-25
2023/07/18 00:09:22;;;;;;;14.90;5.72;;;12.00;99.90;;;;;;5095411;28;20051;-24
2023/07/18 00:11:48;;;;;;;19.98;6.75;;;11.90;99.90;;;;;;5095367;28;20040;-25
2023/07/18 00:14:15;;;;;;;11.18;5.32;;;11.90;99.90;;;;;;5095908;28;20470;-25
2023/07/18 00:16:41;;;;;;;15.23;5.80;;;11.80;99.90;;;;;;5095286;28;20044;-25
2023/07/18 00:19:09;;;;;;;14.40;5.40;;;11.80;99.90;;;;;;5095771;28;20044;-24
2023/07/18 00:21:36;;;;;;;11.73;5.70;;;11.70;99.90;;;;;;5094027;28;20040;-25
2023/07/18 00:24:02;;;;;;;13.77;5.38;;;11.70;99.90;;;;;;5095164;28;20101;-25
2023/07/18 00:26:28;;;;;;;17.77;6.05;;;11.70;99.90;;;;;;5095868;28;20385;-24
2023/07/18 00:28:54;;;;;;;11.40;5.90;;;11.70;99.90;;;;;;5093777;28;20048;-25
2023/07/18 00:31:21;;;;;;;19.02;7.07;;;11.70;99.90;;;;;;5094000;28;20056;-24
2023/07/18 00:33:46;;;;;;;18.45;5.35;;;11.70;99.90;;;;;;5077087;28;20052;-24
2023/07/18 00:36:13;;;;;;;14.68;6.28;;;11.70;99.90;;;;;;5095485;28;20101;-25
2023/07/18 00:38:39;;;;;;;21.25;6.32;;;11.70;99.90;;;;;;5094803;28;20052;-25
2023/07/18 00:41:05;;;;;;;16.60;6.57;;;11.70;99.90;;;;;;5094711;28;20120;-25
2023/07/18 00:43:33;;;;;;;19.88;6.65;;;11.70;99.90;;;;;;5094794;28;20097;-25
2023/07/18 00:45:59;;;;;;;18.52;7.13;;;11.70;99.90;;;;;;5093823;28;20040;-25
2023/07/18 00:48:28;;;;;;;20.30;7.38;;;11.80;99.90;;;;;;5093718;28;20040;-24
2023/07/18 00:50:54;;;;;;;18.92;7.97;;;11.80;99.90;;;;;;5094285;28;20048;-25
2023/07/18 00:53:22;;;;;;;18.13;7.47;;;11.90;99.90;;;;;;5094898;28;20047;-25
2023/07/18 00:55:50;;;;;;;21.60;7.18;;;12.00;99.90;;;;;;5095122;28;20043;-25
2023/07/18 00:58:17;;;;;;;21.80;7.45;;;12.10;99.90;;;;;;5094561;28;20044;-24
2023/07/18 01:00:42;;;;;;;20.88;7.63;;;12.10;99.90;;;;;;5094485;28;20055;-25
2023/07/18 01:03:08;;;;;;;24.90;8.02;;;12.20;99.90;;;;;;5094485;28;20424;-24
2023/07/18 01:05:34;;;;;;;17.33;7.28;;;12.20;99.90;;;;;;5094346;28;20047;-24
2023/07/18 01:08:00;;;;;;;27.00;8.48;;;12.20;99.90;;;;;;5093737;28;20044;-24
2023/07/18 01:10:27;;;;;;;22.17;8.27;;;12.10;99.90;;;;;;5094262;28;20040;-25
2023/07/18 01:12:58;;;;;;;18.63;7.07;;;12.10;99.90;;;;;;5076166;28;20410;-25
2023/07/18 01:15:26;;;;;;;24.73;7.82;;;12.10;99.90;;;;;;5094181;28;20044;-24
2023/07/18 01:17:52;;;;;;;23.38;8.02;;;12.10;99.90;;;;;;5094218;28;20090;-24
2023/07/18 01:20:27;;;;;;;23.92;7.43;;;12.10;99.90;;;;;;5095025;28;20154;-24
2023/07/18 01:22:55;;;;;;;19.10;7.50;;;12.00;99.90;;;;;;5092907;28;20135;-25
2023/07/18 01:25:21;;;;;;;19.98;7.07;;;11.90;99.90;;;;;;5094557;28;20043;-24
2023/07/18 01:27:48;;;;;;;20.40;8.68;;;11.90;99.90;;;;;;5094349;28;20121;-24
2023/07/18 01:30:19;;;;;;;18.88;8.80;;;11.90;99.90;;;;;;5093620;28;20051;-24
2023/07/18 01:32:48;;;;;;;20.58;9.23;;;11.90;99.90;;;;;;5094845;28;20097;-25
2023/07/18 01:35:15;;;;;;;33.58;9.15;;;11.90;99.90;;;;;;5093934;28;20040;-24
2023/07/18 01:37:44;;;;;;;26.25;9.57;;;11.90;99.90;;;;;;5093556;28;20552;-25
2023/07/18 01:40:15;;;;;;;27.95;9.43;;;11.80;99.90;;;;;;5093895;28;20550;-24
2023/07/18 01:42:42;;;;;;;19.40;8.32;;;11.80;99.90;;;;;;5093599;28;20048;-24
2023/07/18 01:45:09;;;;;;;30.08;9.13;;;11.90;99.90;;;;;;5093745;28;20036;-24
2023/07/18 01:47:37;;;;;;;19.63;7.60;;;11.90;99.90;;;;;;5093794;28;20087;-24
2023/07/18 01:50:04;;;;;;;21.67;8.68;;;12.00;99.90;;;;;;5092312;28;20048;-24
2023/07/18 01:52:31;;;;;;;26.15;8.85;;;12.10;99.90;;;;;;5094580;28;20044;-24
2023/07/18 01:54:58;;;;;;;26.55;9.15;;;12.10;99.90;;;;;;5092614;28;20059;-24
2023/07/18 01:57:45;;;;;;;22.98;8.32;;;12.10;99.90;;;;;;5093780;28;20052;-24
2023/07/18 02:00:17;;;;;;;24.90;9.43;;;12.10;99.90;;;;;;5093742;28;20055;-24
2023/07/18 02:02:45;;;;;;;24.48;7.85;;;12.10;99.90;;;;;;5093722;28;20110;-24
2023/07/18 02:05:12;;;;;;;22.00;8.65;;;12.10;99.90;;;;;;5093576;28;20044;-25
2023/07/18 02:07:38;;;;;;;23.75;8.93;;;12.20;99.90;;;;;;5093957;28;20056;-24
2023/07/18 02:10:05;;;;;;;31.52;9.65;;;12.20;99.90;;;;;;5092363;28;20059;-24
2023/07/18 02:12:30;;;;;;;24.63;9.18;;;12.20;99.90;;;;;;5093575;28;20379;-24
2023/07/18 02:14:56;;;;;;;20.75;7.30;;;12.20;99.90;;;;;;5093409;28;20094;-24
2023/07/18 02:17:22;;;;;;;23.50;8.13;;;12.20;99.90;;;;;;5093538;28;20048;-24
2023/07/18 02:19:48;;;;;;;21.42;8.63;;;12.20;99.90;;;;;;5094041;28;20052;-24
2023/07/18 02:22:13;;;;;;;26.17;8.13;;;12.10;99.90;;;;;;5093491;28;20043;-24
2023/07/18 02:24:41;;;;;;;27.38;8.82;;;12.20;99.90;;;;;;5092832;28;20190;-24
2023/07/18 02:27:06;;;;;;;22.25;7.85;;;12.10;99.90;;;;;;5093447;28;20154;-24
2023/07/18 02:29:32;;;;;;;24.30;8.77;;;12.20;99.90;;;;;;5093449;28;20087;-24
2023/07/18 02:31:58;;;;;;;23.92;8.48;;;12.10;99.90;;;;;;5075666;28;20131;-24
2023/07/18 02:34:25;;;;;;;22.60;8.80;;;12.20;99.90;;;;;;5076383;28;20055;-24
2023/07/18 02:36:52;;;;;;;22.60;9.02;;;12.20;99.90;;;;;;5093256;28;20536;-24
2023/07/18 02:39:17;;;;;;;32.38;9.07;;;12.20;99.90;;;;;;5093302;28;20036;-24
2023/07/18 02:41:44;;;;;;;29.98;8.93;;;12.30;99.90;;;;;;5092086;28;20044;-24
2023/07/18 02:44:11;;;;;;;34.80;9.35;;;12.30;99.90;;;;;;5093573;28;20051;-24
2023/07/18 02:46:37;;;;;;;31.75;10.10;;;12.40;99.90;;;;;;5094030;28;20083;-24
2023/07/18 02:49:03;;;;;;;28.67;9.23;;;12.40;99.90;;;;;;5093214;28;20563;-24
2023/07/18 02:51:28;;;;;;;30.52;10.07;;;12.40;99.90;;;;;;5093519;28;20056;-24
2023/07/18 02:53:54;;;;;;;20.92;8.98;;;12.40;99.90;;;;;;5092265;28;20527;-24
2023/07/18 02:56:20;;;;;;;35.55;9.82;;;12.40;99.90;;;;;;5096721;28;20040;-24
2023/07/18 02:58:47;;;;;;;26.15;9.52;;;12.40;99.90;;;;;;5096527;28;20048;-24
2023/07/18 03:01:13;;;;;;;30.05;10.48;;;12.30;99.90;;;;;;5097094;28;20532;-24
2023/07/18 03:03:40;;;;;;;27.25;9.45;;;12.30;99.90;;;;;;5097048;28;20044;-23
2023/07/18 03:06:07;;;;;;;24.77;9.20;;;12.30;99.90;;;;;;5096710;28;20059;-24
2023/07/18 03:08:33;;;;;;;20.60;7.85;;;12.20;99.90;;;;;;5096614;28;20130;-24
2023/07/18 03:11:01;;;;;;;29.65;10.68;;;12.10;99.90;;;;;;5096617;28;20048;-24
2023/07/18 03:13:27;;;;;;;26.55;8.77;;;12.00;99.90;;;;;;5095646;28;20066;-24
2023/07/18 03:15:55;;;;;;;26.27;8.93;;;12.00;99.90;;;;;;5096476;28;20048;-24
2023/07/18 03:18:21;;;;;;;23.48;9.65;;;11.90;99.90;;;;;;5095768;28;20054;-24
2023/07/18 03:20:47;;;;;;;23.98;9.02;;;11.90;99.90;;;;;;5096402;28;20051;-24
2023/07/18 03:23:13;;;;;;;24.42;8.30;;;11.90;99.90;;;;;;5096377;28;20135;-24
2023/07/18 03:25:38;;;;;;;29.52;10.05;;;11.80;99.90;;;;;;5096247;28;20539;-24
2023/07/18 03:28:04;;;;;;;27.05;8.65;;;11.80;99.90;;;;;;5096225;28;20130;-24
2023/07/18 03:30:30;;;;;;;22.38;8.32;;;11.80;99.90;;;;;;5094707;28;20102;-24
2023/07/18 03:32:56;;;;;;;35.85;10.43;;;11.80;99.90;;;;;;5095252;28;20044;-24
2023/07/18 03:35:22;;;;;;;25.38;10.15;;;11.90;99.90;;;;;;5096639;28;20040;-24
2023/07/18 03:37:47;;;;;;;29.75;9.40;;;11.90;99.90;;;;;;5096008;28;20371;-24
2023/07/18 03:40:15;;;;;;;24.70;8.95;;;11.80;99.90;;;;;;5096026;28;20044;-24
2023/07/18 03:42:42;;;;;;;23.00;9.32;;;11.80;99.90;;;;;;5096277;28;20040;-24
2023/07/18 03:45:10;;;;;;;31.10;10.02;;;11.80;99.90;;;;;;5095847;28;20051;-24
2023/07/18 03:47:40;;;;;;;21.40;8.32;;;11.80;99.90;;;;;;5095903;28;20044;-24
2023/07/18 03:50:08;;;;;;;25.10;9.55;;;11.70;99.90;;;;;;5095709;28;20060;-24
2023/07/18 03:52:33;;;;;;;16.15;6.93;;;11.70;99.90;;;;;;5095473;28;20494;-24
2023/07/18 03:54:59;;;;;;;24.23;8.38;;;11.70;99.90;;;;;;5095768;28;20040;-24
2023/07/18 03:57:27;;;;;;;21.65;8.40;;;11.60;99.90;;;;;;5094991;28;20185;-24
2023/07/18 03:59:52;;;;;;;24.40;9.90;;;11.60;99.90;;;;;;5095668;28;20056;-23
2023/07/18 04:02:18;;;;;;;20.08;8.18;;;11.60;99.90;;;;;;5094502;28;20048;-24
2023/07/18 04:04:44;;;;;;;29.40;9.52;;;11.60;99.90;;;;;;5094262;28;20466;-24
2023/07/18 04:07:10;;;;;;;22.63;8.65;;;11.60;99.90;;;;;;5095386;28;20079;-24
2023/07/18 04:09:35;;;;;;;19.23;9.68;;;11.60;99.90;;;;;;5095439;28;20097;-24
2023/07/18 04:12:01;;;;;;;21.75;9.25;;;11.60;99.90;;;;;;5095437;28;20051;-23
2023/07/18 04:14:27;;;;;;;30.38;10.05;;;11.60;99.90;;;;;;5095208;28;20044;-24
2023/07/18 04:16:52;;;;;;;42.83;10.32;;;11.70;99.90;;;;;;5095306;28;20079;-23
2023/07/18 04:19:19;;;;;;;21.45;9.38;;;11.70;99.90;;;;;;5095305;28;20504;-24
2023/07/18 04:21:45;;;;;;;21.10;9.32;;;11.70;99.90;;;;;;5095243;28;20052;-24
2023/07/18 04:24:11;;;;;;;25.45;10.18;;;11.70;99.90;;;;;;5095193;28;20047;-24
2023/07/18 04:26:37;;;;;;;26.02;10.23;;;11.80;99.90;;;;;;5093851;28;20044;-24
2023/07/18 04:29:06;;;;;;;22.77;10.25;;;11.90;99.90;;;;;;5095100;28;20130;-24
2023/07/18 04:31:32;;;;;;;23.60;10.23;;;11.90;99.90;;;;;;5095069;28;20075;-24
2023/07/18 04:33:59;;;;;;;25.00;11.27;;;12.00;99.90;;;;;;5095010;28;20051;-24
2023/07/18 04:36:25;;;;;;;33.67;12.68;;;12.10;99.90;;;;;;5095209;28;20469;-24
2023/07/18 04:38:50;;;;;;;34.85;12.68;;;12.20;99.90;;;;;;5094879;28;20048;-24
2023/07/18 04:41:16;;;;;;;28.95;10.90;;;12.30;99.90;;;;;;5094871;28;20464;-23
2023/07/18 04:43:42;;;;;;;23.40;10.23;;;12.40;99.90;;;;;;5095435;28;20055;-23
2023/07/18 04:46:10;;;;;;;30.35;12.40;;;12.50;99.90;;;;;;5094724;28;20473;-23
2023/07/18 04:48:36;;;;;;;26.50;11.30;;;12.50;99.90;;;;;;5095036;28;20079;-24
2023/07/18 04:51:03;;;;;;;32.10;12.60;;;12.60;99.90;;;;;;5094666;28;20071;-24
2023/07/18 04:53:30;;;;;;;36.08;12.13;;;12.70;99.90;;;;;;5094660;28;20126;-24
2023/07/18 04:55:56;;;;;;;36.40;12.32;;;12.70;99.90;;;;;;5094615;28;20047;-23
2023/07/18 04:58:27;;;;;;;27.58;11.82;;;12.80;99.90;;;;;;5077246;28;20416;-24
2023/07/18 05:00:54;;;;;;;29.50;11.63;;;12.80;99.90;;;;;;5093624;28;20127;-24
2023/07/18 05:03:21;;;;;;;29.73;11.45;;;12.90;99.90;;;;;;5094489;28;20079;-24
2023/07/18 05:05:47;;;;;;;27.23;11.23;;;13.00;99.90;;;;;;5094368;28;20127;-23
2023/07/18 05:08:12;;;;;;;29.30;10.30;;;13.10;99.90;;;;;;5076490;28;20442;-23
2023/07/18 05:10:39;;;;;;;23.63;9.65;;;13.10;99.90;;;;;;5094877;28;20131;-24
2023/07/18 05:13:05;;;;;;;27.30;12.05;;;13.20;99.90;;;;;;5094338;28;20083;-24
2023/07/18 05:15:30;;;;;;;32.90;11.07;;;13.30;99.90;;;;;;5094275;28;20067;-24
2023/07/18 05:17:56;;;;;;;23.98;10.60;;;13.40;99.90;;;;;;5093979;28;20047;-24
2023/07/18 05:20:22;;;;;;;31.17;11.35;;;13.60;99.90;;;;;;5095042;28;20056;-24
2023/07/18 05:22:47;;;;;;;27.95;11.05;;;13.80;99.90;;;;;;5093507;28;20367;-24
2023/07/18 05:25:15;;;;;;;34.00;10.80;;;14.10;99.90;;;;;;5094040;28;20040;-24
2023/07/18 05:27:41;;;;;;;28.15;10.13;;;14.30;99.90;;;;;;5092889;28;20055;-24
2023/07/18 05:30:13;;;;;;;31.77;10.63;;;14.50;99.90;;;;;;5092887;28;20131;-24
2023/07/18 05:32:40;;;;;;;20.67;8.70;;;14.70;99.90;;;;;;5094611;28;20048;-24
2023/07/18 05:35:06;;;;;;;26.73;9.40;;;14.80;99.90;;;;;;5093966;28;20382;-24
2023/07/18 05:37:32;;;;;;;34.40;9.93;;;14.80;99.90;;;;;;5093852;28;20048;-24
2023/07/18 05:39:57;;;;;;;24.05;8.48;;;14.90;99.90;;;;;;5092741;28;20059;-25
2023/07/18 05:42:23;;;;;;;25.67;8.82;;;14.90;99.90;;;;;;5093196;28;20043;-24
2023/07/18 05:44:49;;;;;;;24.17;8.20;;;14.90;99.90;;;;;;5093735;28;20077;-24
2023/07/18 05:47:15;;;;;;;20.08;7.78;;;14.90;99.90;;;;;;5093858;28;20051;-24
2023/07/18 05:49:41;;;;;;;28.02;8.15;;;14.90;99.90;;;;;;5093568;28;20051;-24
2023/07/18 05:52:07;;;;;;;27.88;9.20;;;15.00;99.90;;;;;;5093407;28;20052;-24
2023/07/18 05:54:32;;;;;;;20.92;7.20;;;15.00;99.90;;;;;;5093417;28;20054;-24
2023/07/18 05:56:59;;;;;;;23.27;8.55;;;15.00;99.90;;;;;;5094560;28;20362;-24
2023/07/18 05:59:26;;;;;;;21.45;9.32;;;15.10;99.90;;;;;;5093673;28;20048;-24
2023/07/18 06:01:51;;;;;;;24.80;8.15;;;15.10;99.90;;;;;;5093700;28;20047;-24
2023/07/18 06:04:17;;;;;;;27.55;7.93;;;15.20;99.90;;;;;;5094239;28;20040;-24
2023/07/18 06:06:45;;;;;;;25.52;8.07;;;15.40;99.90;;;;;;5093510;28;20044;-24
2023/07/18 06:09:11;;;;;;;21.27;7.80;;;15.50;99.90;;;;;;5093915;28;20430;-24
2023/07/18 06:11:37;;;;;;;30.98;8.63;;;15.60;99.90;;;;;;5093584;28;20048;-24
2023/07/18 06:14:05;;;;;;;19.10;7.65;;;15.60;99.90;;;;;;5093595;28;20059;-24
2023/07/18 06:16:31;;;;;;;19.08;7.68;;;15.60;99.90;;;;;;5093557;28;20490;-24
2023/07/18 06:18:57;;;;;;;18.98;7.82;;;15.60;99.90;;;;;;5093580;28;20052;-24
2023/07/18 06:21:26;;;;;;;22.48;8.18;;;15.70;99.90;;;;;;5093790;28;20051;-24
2023/07/18 06:23:53;;;;;;;25.67;8.50;;;15.80;99.90;;;;;;5093530;28;20048;-24
2023/07/18 06:26:19;;;;;;;23.85;8.05;;;15.90;99.90;;;;;;5092256;28;20043;-24
2023/07/18 06:28:44;;;;;;;23.20;7.65;;;16.00;99.90;;;;;;5094099;28;20036;-24
2023/07/18 06:31:10;;;;;;;20.65;7.55;;;16.10;99.90;;;;;;5078899;28;20389;-24
2023/07/18 06:33:38;;;;;;;22.95;7.22;;;16.10;99.90;;;;;;5097888;28;20105;-24
2023/07/18 06:36:03;;;;;;;21.67;7.88;;;16.00;99.90;;;;;;5096306;28;20134;-24
2023/07/18 06:38:29;;;;;;;20.38;6.93;;;16.00;99.90;;;;;;5097190;28;20083;-24
2023/07/18 06:40:55;;;;;;;22.88;7.88;;;15.90;99.90;;;;;;5096879;28;20047;-24
2023/07/18 06:43:21;;;;;;;21.15;7.63;;;15.90;99.90;;;;;;5097717;28;20055;-24
2023/07/18 06:45:47;;;;;;;22.00;8.25;;;16.00;99.90;;;;;;5095839;28;20123;-23
2023/07/18 06:48:13;;;;;;;21.85;8.90;;;17.00;99.90;;;;;;5097113;28;20121;-23
2023/07/18 06:50:50;;;;;;;18.40;7.85;;;18.20;99.90;;;;;;5095740;28;20060;-23
2023/07/18 06:53:17;;;;;;;31.35;9.63;;;19.20;99.90;;;;;;5097571;28;20131;-24
2023/07/18 06:55:44;;;;;;;24.17;8.65;;;19.50;99.90;;;;;;5097731;28;20040;-24
2023/07/18 06:58:10;;;;;;;20.63;8.80;;;19.00;99.90;;;;;;5096844;28;20486;-24
2023/07/18 07:00:38;;;;;;;23.27;8.95;;;18.50;99.90;;;;;;5096846;28;20044;-24
2023/07/18 07:03:04;;;;;;;20.63;9.10;;;18.10;99.90;;;;;;5095585;28;20051;-24
2023/07/18 07:05:30;;;;;;;22.75;8.35;;;18.00;99.90;;;;;;5096652;28;20119;-24
2023/07/18 07:07:56;;;;;;;19.98;8.10;;;18.30;99.90;;;;;;5096687;28;20441;-24
2023/07/18 07:10:22;;;;;;;21.25;8.70;;;18.90;99.90;;;;;;5096655;28;20056;-24
2023/07/18 07:12:48;;;;;;;23.75;8.20;;;19.50;26.40;;;;;;5095413;28;20040;-24
2023/07/18 07:15:13;;;;;;;25.60;8.63;;;20.00;1.00;;;;;;5095563;28;20098;-24
2023/07/18 07:17:39;;;;;;;27.25;8.65;;;20.30;99.90;;;;;;5096489;28;20044;-24
2023/07/18 07:20:14;;;;;;;21.27;8.50;;;20.30;51.80;;;;;;5096099;28;20048;-24
2023/07/18 07:22:47;;;;;;;20.38;8.57;;;20.50;1.00;;;;;;5095582;28;20044;-24
2023/07/18 07:25:15;;;;;;;;;;;20.00;1.00;;;;;;5096715;28;20088;-24
2023/07/18 07:27:43;;;;;;;28.27;8.77;;;19.50;99.90;;;;;;5096333;28;20277;-24
2023/07/18 07:30:15;;;;;;;18.73;7.97;;;19.60;99.90;;;;;;5097095;28;20079;-24
2023/07/18 07:32:48;;;;;;;19.70;8.10;;;20.10;99.90;;;;;;5078940;28;20124;-24
2023/07/18 07:35:16;;;;;;;18.42;6.88;;;20.60;99.90;;;;;;5096451;28;20506;-24
2023/07/18 07:37:42;;;;;;;13.60;6.47;;;20.40;99.90;;;;;;5094900;28;20132;-24
2023/07/18 07:40:11;;;;;;;15.52;6.60;;;19.90;99.90;;;;;;5094311;28;20048;-24
2023/07/18 07:42:39;;;;;;;15.13;6.78;;;19.60;1.00;;;;;;5096016;28;20433;-24
2023/07/18 07:45:08;;;;;;;18.10;8.50;;;19.80;99.90;;;;;;5095577;28;20489;-24
2023/07/18 07:47:37;;;;;;;20.20;8.10;;;20.00;1.00;;;;;;5078363;28;20087;-24
2023/07/18 07:50:07;;;;;;;21.77;7.30;;;20.40;1.00;;;;;;5095679;28;20056;-24
2023/07/18 07:52:33;;;;;;;19.10;7.55;;;20.60;99.90;;;;;;5095552;28;20087;-24
2023/07/18 07:54:59;;;;;;;16.48;5.80;;;21.00;99.90;;;;;;5094574;28;20036;-24
2023/07/18 07:57:25;;;;;;;16.02;6.03;;;20.80;1.00;;;;;;5082264;28;20055;-24
2023/07/18 07:59:51;;;;;;;18.80;6.63;;;20.40;15.50;;;;;;5073854;28;20074;-24
2023/07/18 08:02:19;;;;;;;19.92;6.00;;;20.30;99.90;;;;;;5075435;28;20070;-24
2023/07/18 08:04:46;;;;;;;15.00;4.95;;;20.10;99.90;;;;;;5074125;28;20056;-24
2023/07/18 08:07:11;;;;;;;19.17;5.68;;;20.10;99.90;;;;;;5083091;28;20035;-24
2023/07/18 08:09:37;;;;;;;14.02;4.95;;;20.20;99.90;;;;;;5095467;28;20046;-24
2023/07/18 08:12:04;;;;;;;13.40;4.75;;;20.80;37.40;;;;;;5095433;28;20048;-25
2023/07/18 08:14:31;;;;;;;13.52;3.92;;;21.40;1.00;;;;;;5095412;28;20044;-25
2023/07/18 08:16:57;;;;;;;12.45;4.38;;;21.20;99.90;;;;;;5090871;28;20113;-24
2023/07/18 08:19:23;;;;;;;15.48;3.78;;;21.00;99.90;;;;;;5075075;28;20482;-25
2023/07/18 08:21:49;;;;;;;12.27;3.90;;;20.80;99.90;;;;;;5075040;28;20045;-25
2023/07/18 08:24:15;;;;;;;14.98;4.05;;;20.70;13.10;;;;;;5073319;28;20079;-24
2023/07/18 08:26:41;;;;;;;13.20;4.45;;;21.10;99.90;;;;;;5075433;28;20084;-25
2023/07/18 08:29:09;;;;;;;12.18;3.97;;;21.60;1.00;;;;;;5075400;28;20054;-25
2023/07/18 08:31:35;;;;;;;9.35;3.08;;;21.70;31.40;;;;;;5074085;28;20102;-25
2023/07/18 08:34:00;;;;;;;8.30;3.03;;;22.10;1.00;;;;;;5074586;28;20052;-24
2023/07/18 08:36:31;;;;;;;13.70;3.38;;;22.30;99.90;;;;;;5073493;28;20040;-26
2023/07/18 08:38:57;;;;;;;16.30;3.83;;;21.60;99.90;;;;;;5074758;28;20045;-25
2023/07/18 08:41:22;;;;;;;15.88;3.60;;;21.30;1.00;;;;;;5074561;28;20059;-25
2023/07/18 08:43:49;;;;;;;11.88;2.55;;;21.10;99.90;;;;;;5090059;28;20119;-26
2023/07/18 08:46:15;;;;;;;11.15;3.20;;;20.80;51.00;;;;;;5094723;28;20035;-24
2023/07/18 08:48:45;;;;;;;10.77;2.47;;;20.80;36.60;;;;;;5093777;28;20094;-25
2023/07/18 08:51:13;;;;;;;7.93;2.42;;;21.10;99.90;;;;;;5078271;28;20113;-25
2023/07/18 08:53:39;;;;;;;10.75;3.03;;;21.50;99.90;;;;;;5079738;28;20056;-25
2023/07/18 08:56:08;;;;;;;11.48;2.10;;;21.40;99.90;;;;;;5092586;28;20044;-24
2023/07/18 08:58:37;;;;;;;10.60;2.15;;;22.10;26.30;;;;;;5095377;28;20120;-25
2023/07/18 09:01:06;;;;;;;12.52;3.15;;;22.90;1.00;;;;;;5088333;28;20053;-25
2023/07/18 09:03:32;;;;;;;9.05;2.42;;;23.50;99.90;;;;;;5084546;28;20048;-25
2023/07/18 09:06:17;;;;;;;8.00;1.88;;;23.10;99.20;;;;;;5073987;28;20560;-26
2023/07/18 09:08:45;;;;;;;7.88;1.80;;;22.90;99.90;;;;;;5080433;28;20069;-25
2023/07/18 09:11:12;;;;;;;9.80;2.15;;;22.70;99.90;;;;;;5072265;28;20044;-26
2023/07/18 09:13:40;;;;;;;5.97;1.42;;;22.60;99.90;;;;;;5091763;28;20051;-26
2023/07/18 09:16:17;;;;;;;7.68;1.70;;;22.10;72.30;;;;;;5093279;28;20092;-25
2023/07/18 09:18:55;;;;;;;5.18;1.45;;;22.10;99.90;;;;;;5091952;28;20429;-26
2023/07/18 09:21:23;;;;;;;6.72;1.90;;;22.10;1.00;;;;;;5076829;28;20459;-26
2023/07/18 09:23:49;;;;;;;5.63;1.30;;;22.70;1.00;;;;;;5077935;28;20047;-24
2023/07/18 09:26:18;;;;;;;5.75;1.33;;;23.40;99.90;;;;;;5078462;28;20048;-26
2023/07/18 09:28:45;;;;;;;5.82;1.65;;;23.50;99.90;;;;;;5072871;28;20049;-26
2023/07/18 09:31:17;;;;;;;7.82;1.70;;;23.80;1.00;;;;;;5071306;28;20090;-26
2023/07/18 09:33:45;;;;;;;5.80;1.27;;;24.00;1.00;;;;;;5073665;28;20052;-26
2023/07/18 09:36:19;;;;;;;6.25;1.63;;;23.60;43.80;;;;;;5072575;28;20048;-26
2023/07/18 09:38:49;;;;;;;8.05;1.95;;;23.20;46.90;;;;;;5073013;28;20040;-26
2023/07/18 09:41:20;;;;;;;4.57;1.17;;;22.60;99.90;;;;;;5072721;28;20055;-26
2023/07/18 09:43:46;;;;;;;5.28;1.25;;;22.10;99.90;;;;;;5072990;28;20048;-25
2023/07/18 09:46:17;;;;;;;6.20;1.55;;;21.80;99.90;;;;;;5072417;28;20051;-26
2023/07/18 09:48:45;;;;;;;8.45;1.60;;;21.50;1.00;;;;;;5073653;28;20051;-26
2023/07/18 09:51:14;;;;;;;7.32;1.85;;;21.20;99.90;;;;;;5073695;28;20067;-26
2023/07/18 09:53:47;;;;;;;8.20;1.65;;;21.00;99.90;;;;;;5074491;28;20550;-27
2023/07/18 09:56:14;;;;;;;;;;;20.70;1.00;;;;;;5074058;28;20074;-26
2023/07/18 09:58:44;;;;;;;5.50;1.58;;;20.40;99.90;;;;;;5073486;28;19986;-26
2023/07/18 10:01:19;;;;;;;6.38;1.50;;;20.40;99.90;;;;;;5076579;28;20052;-24
2023/07/18 10:03:47;;;;;;;10.07;2.00;;;20.40;99.90;;;;;;5095841;28;20101;-26
2023/07/18 10:06:15;;;;;;;5.68;1.95;;;20.40;99.90;;;;;;5088326;28;20384;-26
2023/07/18 10:08:43;;;;;;;5.60;1.70;;;20.40;99.90;;;;;;5079408;28;20516;-24
2023/07/18 10:11:11;;;;;;;7.35;1.75;;;20.40;99.90;;;;;;5081032;28;20458;-26
2023/07/18 10:13:55;;;;;;;5.95;1.20;;;20.40;1.00;;;;;;5097755;28;20037;-26
2023/07/18 10:16:22;;;;;;;4.90;1.45;;;20.40;1.00;;;;;;5098289;28;20085;-26
2023/07/18 10:18:51;;;;;;;6.85;1.25;;;20.40;1.00;;;;;;5097682;28;20086;-25
2023/07/18 10:21:45;;;;;;;5.53;1.85;;;20.30;1.00;;;;;;5074315;28;20051;-26
2023/07/18 10:24:26;;;;;;;8.32;1.77;;;20.20;1.00;;;;;;5078163;28;20055;-26
2023/07/18 10:26:57;;;;;;;6.07;1.92;;;20.30;99.90;;;;;;5076671;28;20045;-26
2023/07/18 10:29:23;;;;;;;6.90;2.15;;;20.40;99.90;;;;;;5077238;28;20048;-25
2023/07/18 10:31:48;;;;;;;5.50;1.63;;;20.70;99.90;;;;;;5077181;28;20048;-25
2023/07/18 10:34:16;;;;;;;9.38;2.08;;;20.70;99.90;;;;;;5090126;28;20096;-26
2023/07/18 10:36:59;;;;;;;8.25;1.90;;;20.70;99.90;;;;;;5097408;28;20355;-26
2023/07/18 10:39:48;;;;;;;6.50;1.73;;;20.70;99.90;;;;;;5088149;28;20063;-26
2023/07/18 10:42:25;;;;;;;8.10;1.85;;;20.90;99.90;;;;;;5076891;28;20490;-26
2023/07/18 10:45:04;;;;;;;9.35;1.92;;;21.10;99.90;;;;;;5094293;28;20056;-27
2023/07/18 10:47:31;;;;;;;6.85;2.05;;;21.40;99.90;;;;;;5097056;28;20052;-26
2023/07/18 10:49:57;;;;;;;9.50;2.00;;;22.30;86.40;;;;;;5095954;28;20046;-26
2023/07/18 10:52:23;;;;;;;7.80;1.83;;;23.20;99.90;;;;;;5085833;28;20056;-26
2023/07/18 10:54:57;;;;;;;6.00;1.55;;;23.70;1.00;;;;;;5095025;28;20482;-26
2023/07/18 10:57:33;;;;;;;7.13;2.28;;;24.20;99.90;;;;;;5076652;28;20412;-26
2023/07/18 11:00:00;;;;;;;7.95;2.03;;;24.70;93.80;;;;;;5076582;28;20051;-26
2023/07/18 11:02:28;;;;;;;6.80;1.98;;;24.50;84.80;;;;;;5076528;28;20048;-26
2023/07/18 11:04:53;;;;;;;6.53;1.88;;;24.40;99.90;;;;;;5075406;28;20074;-26
2023/07/18 11:07:35;;;;;;;7.25;2.30;;;24.70;99.90;;;;;;5083348;28;20048;-26
2023/07/18 11:10:01;;;;;;;7.25;1.60;;;23.90;33.30;;;;;;5082828;28;20078;-26
2023/07/18 11:12:31;;;;;;;9.63;1.95;;;23.70;99.90;;;;;;5077456;28;20049;-26
2023/07/18 11:14:57;;;;;;;5.70;1.25;;;23.50;1.00;;;;;;5076329;28;20051;-26
2023/07/18 11:17:28;;;;;;;9.10;2.13;;;24.10;1.00;;;;;;5076155;28;20060;-26
2023/07/18 11:19:58;;;;;;;5.72;1.33;;;24.00;99.90;;;;;;5076237;28;20044;-26
2023/07/18 11:22:25;;;;;;;9.38;1.55;;;24.10;90.00;;;;;;5074659;28;20506;-27
2023/07/18 11:24:56;;;;;;;4.60;1.17;;;24.50;88.50;;;;;;5075726;28;20557;-26
2023/07/18 11:27:23;;;;;;;3.50;1.13;;;25.50;1.00;;;;;;5079918;28;20126;-28
2023/07/18 11:30:08;;;;;;;7.85;1.67;;;25.60;99.90;;;;;;5077111;28;20059;-29
2023/07/18 11:32:45;;;;;;;6.00;1.50;;;25.60;99.90;;;;;;5086062;28;20481;-29
2023/07/18 11:35:21;;;;;;;3.35;1.30;;;25.80;99.90;;;;;;5096774;28;20395;-26
2023/07/18 11:37:51;;;;;;;8.85;1.88;;;25.70;99.90;;;;;;5096019;28;20558;-30
2023/07/18 11:40:25;;;;;;;4.65;1.27;;;25.20;99.90;;;;;;5078241;28;20058;-26
2023/07/18 11:42:58;;;;;;;6.25;1.52;;;24.70;99.90;;;;;;5092272;28;20056;-26
2023/07/18 11:45:28;;;;;;;4.90;1.40;;;24.80;99.90;;;;;;5095951;28;20122;-26
2023/07/18 11:47:56;;;;;;;6.38;1.70;;;25.20;99.90;;;;;;5094956;28;20126;-27
2023/07/18 11:50:25;;;;;;;5.97;1.50;;;25.70;99.90;;;;;;5095637;28;20521;-27
2023/07/18 11:52:52;;;;;;;8.75;1.90;;;25.90;99.90;;;;;;5088876;28;20059;-26
2023/07/18 11:55:20;;;;;;;6.80;1.58;;;25.40;99.90;;;;;;5075562;28;20036;-27
2023/07/18 11:57:46;;;;;;;9.43;1.92;;;24.60;99.90;;;;;;5076112;28;20052;-26
2023/07/18 12:00:13;;;;;;;5.38;1.50;;;24.20;99.90;;;;;;5075848;28;20050;-27
2023/07/18 12:02:39;;;;;;;3.97;1.27;;;24.20;1.00;;;;;;5074405;28;20048;-25
2023/07/18 12:05:05;;;;;;;4.15;1.35;;;24.10;1.00;;;;;;5093891;28;20105;-27
2023/07/18 12:07:32;;;;;;;3.80;1.50;;;23.50;7.30;;;;;;5096152;28;20048;-26
2023/07/18 12:09:58;;;;;;;7.00;1.98;;;23.30;99.90;;;;;;5094345;28;20540;-26
2023/07/18 12:12:24;;;;;;;5.72;2.03;;;22.60;99.90;;;;;;5095182;28;20092;-26
2023/07/18 12:14:50;;;;;;;4.25;1.73;;;22.50;1.00;;;;;;5080646;28;20045;-27
2023/07/18 12:17:16;;;;;;;3.75;1.63;;;22.20;1.00;;;;;;5075156;28;20063;-27
2023/07/18 12:19:43;;;;;;;3.83;1.95;;;22.10;23.10;;;;;;5075078;28;20051;-27
2023/07/18 12:22:09;;;;;;;2.88;1.67;;;21.60;99.90;;;;;;5075032;28;20048;-26
2023/07/18 12:24:34;;;;;;;6.28;1.40;;;21.80;99.90;;;;;;5074824;28;20047;-27
2023/07/18 12:27:00;;;;;;;6.22;2.00;;;21.70;99.90;;;;;;5073604;28;20045;-27
2023/07/18 12:29:26;;;;;;;3.35;1.55;;;21.70;99.90;;;;;;5074929;28;20048;-26
2023/07/18 12:31:53;;;;;;;4.03;1.33;;;21.60;99.90;;;;;;5075389;28;20076;-26
2023/07/18 12:34:19;;;;;;;3.67;1.35;;;21.30;99.90;;;;;;5073273;28;20052;-25
2023/07/18 12:36:45;;;;;;;2.70;1.10;;;21.20;99.90;;;;;;5086228;28;20040;-26
2023/07/18 12:39:12;;;;;;;4.25;1.02;;;21.10;99.90;;;;;;5094540;28;20101;-26
2023/07/18 12:41:38;;;;;;;3.63;1.40;;;21.20;99.90;;;;;;5094864;28;20505;-26
2023/07/18 12:44:04;;;;;;;3.55;1.20;;;21.60;99.90;;;;;;5094845;28;20044;-26